Time;durP1;ratioP1;P1;durP2;ratioP2;P2;SDS_P1;SDS_P2;PMS_P1;PMS_P2;Temp;Humidity;BMP_temperature;BMP_pressure;BME280_temperature;BME280_humidity;BME280_pressure;Samples;Min_cycle;Max_cycle;Signal;HPM_P1;HPM_P2
2022/08/02 00:02:23;;;;;;;11.60;3.97;;;13.30;99.90;;;;;;4999446;28;20037;-53
2022/08/02 00:04:48;;;;;;;8.70;4.07;;;13.30;99.90;;;;;;5000238;28;20080;-49
2022/08/02 00:07:14;;;;;;;9.80;3.92;;;13.30;99.90;;;;;;4994462;28;20049;-50
2022/08/02 00:09:41;;;;;;;10.32;4.32;;;13.30;99.90;;;;;;4996317;28;20093;-50
2022/08/02 00:12:07;;;;;;;9.60;4.47;;;13.30;99.90;;;;;;4981029;28;20104;-53
2022/08/02 00:14:33;;;;;;;11.05;4.32;;;13.40;99.90;;;;;;4979876;28;20184;-53
2022/08/02 00:16:59;;;;;;;10.65;5.07;;;13.30;99.90;;;;;;4981170;28;20078;-50
2022/08/02 00:19:24;;;;;;;13.02;5.13;;;13.30;99.90;;;;;;4980797;28;20152;-49
2022/08/02 00:21:50;;;;;;;11.15;6.03;;;13.30;99.90;;;;;;4980301;28;20042;-50
2022/08/02 00:24:16;;;;;;;19.02;8.15;;;13.30;99.90;;;;;;4980038;28;20057;-50
2022/08/02 00:26:41;;;;;;;15.63;8.05;;;13.30;99.90;;;;;;4981551;28;20448;-53
2022/08/02 00:29:07;;;;;;;15.90;7.53;;;13.30;99.90;;;;;;4980964;28;20065;-52
2022/08/02 00:31:33;;;;;;;15.85;8.20;;;13.30;99.90;;;;;;4981082;28;20054;-51
2022/08/02 00:33:58;;;;;;;21.60;7.88;;;13.30;99.90;;;;;;4978730;28;20046;-49
2022/08/02 00:36:24;;;;;;;18.83;7.70;;;13.30;99.90;;;;;;4979684;28;20569;-49
2022/08/02 00:38:50;;;;;;;16.77;7.03;;;13.30;99.90;;;;;;4979884;28;20058;-51
2022/08/02 00:41:18;;;;;;;15.90;7.10;;;13.40;99.90;;;;;;4979259;28;20417;-55
2022/08/02 00:43:45;;;;;;;14.30;6.68;;;13.40;99.90;;;;;;4980007;28;20316;-49
2022/08/02 00:46:11;;;;;;;12.40;6.03;;;13.40;99.90;;;;;;4981254;28;20035;-48
2022/08/02 00:48:37;;;;;;;15.40;6.32;;;13.40;99.90;;;;;;4980679;28;20065;-49
2022/08/02 00:51:03;;;;;;;13.63;5.80;;;13.40;99.90;;;;;;4979780;28;20046;-52
2022/08/02 00:53:29;;;;;;;13.75;6.03;;;13.40;99.90;;;;;;4979153;28;20057;-51
2022/08/02 00:55:55;;;;;;;14.20;6.15;;;13.30;99.90;;;;;;4980787;28;20042;-49
2022/08/02 00:58:21;;;;;;;12.95;5.13;;;13.20;99.90;;;;;;4980105;28;20054;-50
2022/08/02 01:00:47;;;;;;;14.48;5.30;;;13.30;99.90;;;;;;4980643;28;20073;-49
2022/08/02 01:03:12;;;;;;;12.73;5.43;;;13.20;99.90;;;;;;4979691;28;20046;-49
2022/08/02 01:05:38;;;;;;;15.23;5.10;;;13.30;99.90;;;;;;4979256;28;20845;-50
2022/08/02 01:08:04;;;;;;;8.13;4.40;;;13.20;99.90;;;;;;4990818;28;20049;-50
2022/08/02 01:10:30;;;;;;;8.45;3.55;;;13.10;99.90;;;;;;4979875;28;20113;-48
2022/08/02 01:12:55;;;;;;;12.82;3.78;;;13.10;99.90;;;;;;4979253;28;20498;-52
2022/08/02 01:15:22;;;;;;;10.15;3.33;;;13.10;99.90;;;;;;4979869;28;20654;-52
2022/08/02 01:18:04;;;;;;;8.10;3.80;;;13.10;99.90;;;;;;4980315;28;20057;-49
2022/08/02 01:20:41;;;;;;;11.07;3.40;;;13.10;99.90;;;;;;4978539;28;20042;-52
2022/08/02 01:23:28;;;;;;;10.20;3.50;;;13.10;99.90;;;;;;4979829;28;20046;-49
2022/08/02 01:26:18;;;;;;;13.15;3.70;;;13.00;99.90;;;;;;4977906;28;20061;-50
2022/08/02 01:29:01;;;;;;;9.15;3.60;;;13.00;99.90;;;;;;4980576;28;20125;-49
2022/08/02 01:31:45;;;;;;;11.25;3.33;;;13.00;99.90;;;;;;4979397;28;20423;-50
2022/08/02 01:34:27;;;;;;;7.53;3.88;;;13.00;99.90;;;;;;4980026;28;20042;-52
2022/08/02 01:37:16;;;;;;;12.20;4.07;;;12.90;99.90;;;;;;4978430;28;20478;-48
2022/08/02 01:39:43;;;;;;;11.23;4.00;;;12.90;99.90;;;;;;4979810;28;20343;-53
2022/08/02 01:42:10;;;;;;;9.20;3.80;;;12.80;99.90;;;;;;4990074;28;20046;-49
2022/08/02 01:44:39;;;;;;;13.70;4.05;;;12.80;99.90;;;;;;4998772;28;20061;-51
2022/08/02 01:47:12;;;;;;;11.35;3.97;;;12.80;99.90;;;;;;4999082;28;20295;-50
2022/08/02 01:49:40;;;;;;;11.70;4.15;;;12.80;99.90;;;;;;4998120;28;20701;-51
2022/08/02 01:52:23;;;;;;;9.75;4.32;;;12.70;99.90;;;;;;4996948;28;20394;-52
2022/08/02 01:55:13;;;;;;;8.18;3.80;;;12.70;99.90;;;;;;4999190;28;20034;-49
2022/08/02 01:57:47;;;;;;;11.02;3.97;;;12.70;99.90;;;;;;4998775;28;20092;-50
2022/08/02 02:00:14;;;;;;;10.93;4.07;;;12.70;99.90;;;;;;4999113;28;20451;-49
2022/08/02 02:02:43;;;;;;;12.50;4.60;;;12.70;99.90;;;;;;4997922;28;20092;-52
2022/08/02 02:05:15;;;;;;;10.05;4.55;;;12.70;99.90;;;;;;4998644;28;20058;-50
2022/08/02 02:07:43;;;;;;;10.48;4.72;;;12.70;99.90;;;;;;4990958;28;20260;-50
2022/08/02 02:10:13;;;;;;;11.38;5.03;;;12.60;99.90;;;;;;4978325;28;20042;-51
2022/08/02 02:12:41;;;;;;;16.15;5.65;;;12.70;99.90;;;;;;4978817;28;20042;-53
2022/08/02 02:15:10;;;;;;;11.65;4.80;;;12.40;99.90;;;;;;4979299;28;20053;-52
2022/08/02 02:17:37;;;;;;;11.32;4.68;;;12.60;99.90;;;;;;4977986;28;20112;-49
2022/08/02 02:20:03;;;;;;;15.82;5.25;;;12.60;99.90;;;;;;4983772;28;20042;-48
2022/08/02 02:22:29;;;;;;;12.05;4.80;;;12.50;99.90;;;;;;4997425;28;20116;-49
2022/08/02 02:24:55;;;;;;;16.55;5.45;;;12.50;99.90;;;;;;4998529;28;20225;-48
2022/08/02 02:27:23;;;;;;;11.43;5.38;;;12.50;99.90;;;;;;4997424;28;20034;-51
2022/08/02 02:29:50;;;;;;;11.00;5.00;;;12.50;99.90;;;;;;4998394;28;20378;-48
2022/08/02 02:32:17;;;;;;;9.85;5.15;;;12.40;99.90;;;;;;4998357;28;20195;-50
2022/08/02 02:34:45;;;;;;;11.05;5.15;;;12.40;99.90;;;;;;4998748;28;20211;-49
2022/08/02 02:37:20;;;;;;;11.00;4.88;;;12.40;99.90;;;;;;4996720;28;20053;-49
2022/08/02 02:39:49;;;;;;;9.25;5.45;;;12.40;99.90;;;;;;4998310;28;20441;-57
2022/08/02 02:42:18;;;;;;;10.10;5.50;;;12.40;99.90;;;;;;4998081;28;20042;-51
2022/08/02 02:44:46;;;;;;;13.82;5.82;;;12.40;99.90;;;;;;4998200;28;20056;-48
2022/08/02 02:47:15;;;;;;;13.00;5.95;;;12.40;99.90;;;;;;4998334;28;20069;-50
2022/08/02 02:49:43;;;;;;;11.95;5.78;;;12.40;99.90;;;;;;4997594;28;20073;-51
2022/08/02 02:52:10;;;;;;;13.23;5.85;;;12.40;99.90;;;;;;4996507;28;20050;-50
2022/08/02 02:54:37;;;;;;;11.40;5.10;;;12.40;99.90;;;;;;4997746;28;20247;-50
2022/08/02 02:57:05;;;;;;;11.77;5.75;;;12.40;99.90;;;;;;4998033;28;20049;-50
2022/08/02 02:59:33;;;;;;;11.43;5.53;;;12.50;99.90;;;;;;4997767;28;20120;-50
2022/08/02 03:02:00;;;;;;;9.13;5.43;;;12.40;99.90;;;;;;4997444;28;20476;-49
2022/08/02 03:04:27;;;;;;;9.68;5.57;;;12.40;99.90;;;;;;4997421;28;20199;-51
2022/08/02 03:06:53;;;;;;;12.02;5.97;;;12.40;99.90;;;;;;4990894;28;20472;-48
2022/08/02 03:09:19;;;;;;;10.90;5.30;;;12.40;99.90;;;;;;4982966;28;20038;-49
2022/08/02 03:11:45;;;;;;;13.23;5.40;;;12.40;99.90;;;;;;4977873;28;20402;-50
2022/08/02 03:14:12;;;;;;;10.75;5.20;;;12.40;99.90;;;;;;4978936;28;20073;-49
2022/08/02 03:16:55;;;;;;;10.55;5.30;;;12.30;99.90;;;;;;4978373;28;20093;-51
2022/08/02 03:19:22;;;;;;;9.80;5.20;;;12.40;99.90;;;;;;4977439;28;20109;-50
2022/08/02 03:21:50;;;;;;;11.93;5.22;;;12.40;99.90;;;;;;4976201;28;20058;-49
2022/08/02 03:24:15;;;;;;;8.55;5.20;;;12.40;99.90;;;;;;4977836;28;20046;-51
2022/08/02 03:26:41;;;;;;;12.55;5.82;;;12.40;99.90;;;;;;4977826;28;20197;-49
2022/08/02 03:29:08;;;;;;;12.40;5.50;;;12.40;99.90;;;;;;4978269;28;20047;-48
2022/08/02 03:31:34;;;;;;;9.60;5.25;;;12.40;99.90;;;;;;4978056;28;20105;-48
2022/08/02 03:34:01;;;;;;;13.98;5.93;;;12.40;99.90;;;;;;4978265;28;20046;-49
2022/08/02 03:36:30;;;;;;;12.60;5.68;;;12.30;99.90;;;;;;4976313;28;20064;-50
2022/08/02 03:38:58;;;;;;;11.63;5.50;;;12.30;99.90;;;;;;4978369;28;20050;-52
2022/08/02 03:41:24;;;;;;;13.13;6.05;;;12.30;99.90;;;;;;4977927;28;20043;-51
2022/08/02 03:43:51;;;;;;;11.52;5.43;;;12.20;99.90;;;;;;4976690;28;20050;-50
2022/08/02 03:46:20;;;;;;;12.65;5.55;;;12.30;99.90;;;;;;4977069;28;20042;-52
2022/08/02 03:48:50;;;;;;;11.23;5.90;;;12.20;99.90;;;;;;4978653;28;20043;-49
2022/08/02 03:51:16;;;;;;;14.68;6.15;;;12.30;99.90;;;;;;4975449;28;20096;-50
2022/08/02 03:53:42;;;;;;;11.75;5.68;;;12.20;99.90;;;;;;4992413;28;20050;-51
2022/08/02 03:56:09;;;;;;;10.60;5.63;;;12.20;99.90;;;;;;4978066;28;20058;-50
2022/08/02 03:58:34;;;;;;;10.88;6.25;;;12.30;99.90;;;;;;4977791;28;20434;-48
2022/08/02 04:01:01;;;;;;;13.95;5.40;;;12.20;99.90;;;;;;4979421;28;20046;-48
2022/08/02 04:03:27;;;;;;;10.52;5.75;;;12.20;99.90;;;;;;4980232;28;20165;-52
2022/08/02 04:05:52;;;;;;;11.98;5.63;;;12.20;99.90;;;;;;4982740;28;20177;-49
2022/08/02 04:08:18;;;;;;;12.25;5.75;;;12.20;99.90;;;;;;4989889;28;20873;-51
2022/08/02 04:13:35;;;;;;;10.75;6.07;;;12.30;99.90;;;;;;4981044;28;20130;-49
2022/08/02 04:16:18;;;;;;;12.57;6.20;;;12.20;99.90;;;;;;4981324;28;20042;-51
2022/08/02 04:18:56;;;;;;;9.68;5.38;;;12.30;99.90;;;;;;4981300;28;20054;-47
2022/08/02 04:21:26;;;;;;;13.77;6.28;;;12.30;99.90;;;;;;4979962;28;20045;-52
2022/08/02 04:23:53;;;;;;;15.65;5.70;;;12.30;99.90;;;;;;4980778;28;20046;-49
2022/08/02 04:26:20;;;;;;;14.32;6.05;;;12.30;99.90;;;;;;4979543;28;20104;-49
2022/08/02 04:28:46;;;;;;;11.63;6.35;;;12.30;99.90;;;;;;4981050;28;20050;-56
2022/08/02 04:31:13;;;;;;;11.25;5.07;;;12.40;99.90;;;;;;4981316;28;20105;-51
2022/08/02 04:33:40;;;;;;;13.05;5.68;;;12.40;99.90;;;;;;4978927;28;20056;-50
2022/08/02 04:36:06;;;;;;;8.93;5.22;;;12.40;99.90;;;;;;4979702;28;20577;-48
2022/08/02 04:38:32;;;;;;;11.48;6.00;;;12.40;99.90;;;;;;4980595;28;20144;-51
2022/08/02 04:40:58;;;;;;;11.93;5.60;;;12.50;99.90;;;;;;4981035;28;20053;-51
2022/08/02 04:43:24;;;;;;;9.90;5.45;;;12.40;99.90;;;;;;4979495;28;20065;-49
2022/08/02 04:45:52;;;;;;;9.98;5.50;;;12.40;99.90;;;;;;4980953;28;20076;-50
2022/08/02 04:48:18;;;;;;;13.20;5.65;;;12.50;99.90;;;;;;4980153;28;20046;-48
2022/08/02 04:50:44;;;;;;;9.57;5.47;;;12.50;99.90;;;;;;4980331;28;20038;-48
2022/08/02 04:53:09;;;;;;;11.18;5.70;;;12.50;99.90;;;;;;4979608;28;20054;-49
2022/08/02 04:55:35;;;;;;;11.75;5.57;;;12.70;99.90;;;;;;4980578;28;20105;-48
2022/08/02 04:58:01;;;;;;;10.25;5.30;;;12.90;99.90;;;;;;4980538;28;20097;-49
2022/08/02 05:00:28;;;;;;;11.27;5.35;;;13.10;99.90;;;;;;4980215;28;20046;-51
2022/08/02 05:02:57;;;;;;;10.50;5.10;;;13.40;99.90;;;;;;4979616;28;20050;-47
2022/08/02 05:05:23;;;;;;;10.73;5.47;;;13.50;99.90;;;;;;4977577;28;20054;-51
2022/08/02 05:07:49;;;;;;;8.73;4.55;;;13.90;99.90;;;;;;4988277;28;20049;-49
2022/08/02 05:10:15;;;;;;;9.00;4.65;;;14.10;99.90;;;;;;4999811;28;20136;-53
2022/08/02 05:12:40;;;;;;;8.68;5.03;;;14.10;99.90;;;;;;4998506;28;20044;-51
2022/08/02 05:15:07;;;;;;;10.10;5.18;;;14.00;99.90;;;;;;4999674;28;20054;-50
2022/08/02 05:17:33;;;;;;;11.02;4.93;;;14.10;99.90;;;;;;4999445;28;20042;-49
2022/08/02 05:19:59;;;;;;;9.02;4.90;;;14.40;99.90;;;;;;4998533;28;20489;-50
2022/08/02 05:22:24;;;;;;;9.90;4.90;;;14.20;99.90;;;;;;4997354;28;20060;-48
2022/08/02 05:24:50;;;;;;;11.82;4.97;;;14.30;99.90;;;;;;4999233;28;20033;-51
2022/08/02 05:27:17;;;;;;;8.57;5.05;;;14.10;99.90;;;;;;4998834;28;20076;-50
2022/08/02 05:29:42;;;;;;;9.80;5.07;;;14.00;99.90;;;;;;4999580;28;20042;-50
2022/08/02 05:32:08;;;;;;;8.15;4.82;;;14.10;99.90;;;;;;4998954;28;20104;-49
2022/08/02 05:34:34;;;;;;;11.27;5.20;;;14.10;99.90;;;;;;4998825;28;20081;-48
2022/08/02 05:36:59;;;;;;;9.07;4.80;;;14.20;99.90;;;;;;4998218;28;20077;-52
2022/08/02 05:39:25;;;;;;;9.15;4.53;;;14.20;99.90;;;;;;4997353;28;20069;-50
2022/08/02 05:41:50;;;;;;;9.48;4.95;;;14.40;99.90;;;;;;4999171;28;20088;-51
2022/08/02 05:44:16;;;;;;;8.90;4.72;;;14.60;99.90;;;;;;4998610;28;20045;-50
2022/08/02 05:46:42;;;;;;;11.35;5.05;;;14.70;99.90;;;;;;4999555;28;20048;-52
2022/08/02 05:49:07;;;;;;;11.55;5.32;;;14.90;99.90;;;;;;4998762;28;20078;-51
2022/08/02 05:51:35;;;;;;;12.73;4.90;;;14.90;99.90;;;;;;4997643;28;20128;-47
2022/08/02 05:54:07;;;;;;;9.50;4.97;;;15.30;99.90;;;;;;4998959;28;20285;-48
2022/08/02 05:56:47;;;;;;;9.20;4.70;;;15.10;99.90;;;;;;4998625;28;20045;-48
2022/08/02 05:59:52;;;;;;;9.40;5.05;;;15.30;99.90;;;;;;4997788;28;20053;-52
2022/08/02 06:02:42;;;;;;;7.43;4.35;;;15.70;99.90;;;;;;4997354;28;20527;-49
2022/08/02 06:05:14;;;;;;;8.70;4.63;;;15.70;99.90;;;;;;4998011;28;20062;-51
2022/08/02 06:07:44;;;;;;;10.85;4.72;;;15.80;99.90;;;;;;4989981;28;20064;-48
2022/08/02 06:10:12;;;;;;;13.38;5.03;;;15.90;99.90;;;;;;4979310;28;20105;-48
2022/08/02 06:12:47;;;;;;;11.30;4.57;;;16.10;99.90;;;;;;4977596;28;20489;-51
2022/08/02 06:15:14;;;;;;;7.93;3.90;;;16.30;99.90;;;;;;4978398;28;20112;-48
2022/08/02 06:17:41;;;;;;;7.05;3.42;;;15.90;99.90;;;;;;4979105;28;20891;-48
2022/08/02 06:20:09;;;;;;;13.57;4.65;;;15.80;99.90;;;;;;4993323;28;20331;-53
2022/08/02 06:22:38;;;;;;;18.77;4.68;;;16.30;99.90;;;;;;4978540;28;20104;-48
2022/08/02 06:25:05;;;;;;;10.55;4.50;;;16.20;99.90;;;;;;4978762;28;20042;-48
2022/08/02 06:27:32;;;;;;;12.02;4.57;;;16.80;99.90;;;;;;4978502;28;20124;-51
2022/08/02 06:29:57;;;;;;;8.52;4.20;;;16.60;99.90;;;;;;4978837;28;20046;-50
2022/08/02 06:32:25;;;;;;;10.05;4.47;;;16.70;99.90;;;;;;4977672;28;20509;-49
2022/08/02 06:34:51;;;;;;;10.10;4.20;;;16.90;99.90;;;;;;4977978;28;20712;-49
2022/08/02 06:37:55;;;;;;;9.70;4.40;;;17.00;99.90;;;;;;4977952;28;20042;-54
2022/08/02 06:40:56;;;;;;;8.20;4.50;;;17.00;99.90;;;;;;4975262;28;20150;-48
2022/08/02 06:44:00;;;;;;;7.35;3.80;;;17.20;99.90;;;;;;4964373;28;20093;-50
2022/08/02 06:46:26;;;;;;;8.23;4.15;;;17.10;99.90;;;;;;4969325;28;20062;-51
2022/08/02 06:48:52;;;;;;;7.65;4.00;;;17.40;99.90;;;;;;4978887;28;20042;-49
2022/08/02 06:51:19;;;;;;;8.15;4.00;;;17.30;99.90;;;;;;4977332;28;20696;-52
2022/08/02 06:53:45;;;;;;;8.23;4.22;;;17.40;99.90;;;;;;4978686;28;20267;-50
2022/08/02 06:56:11;;;;;;;9.45;4.32;;;17.90;99.90;;;;;;4977920;28;20504;-50
2022/08/02 06:58:37;;;;;;;10.30;4.80;;;17.70;99.90;;;;;;4978126;28;20050;-50
2022/08/02 07:01:06;;;;;;;10.38;4.40;;;17.60;99.90;;;;;;4977056;28;20104;-50
2022/08/02 07:03:36;;;;;;;9.32;4.15;;;17.60;99.90;;;;;;4978375;28;20097;-50
2022/08/02 07:06:04;;;;;;;11.02;4.47;;;17.70;99.90;;;;;;4979754;28;20050;-52
2022/08/02 07:08:31;;;;;;;8.57;3.70;;;18.00;99.90;;;;;;4992828;28;20050;-48
2022/08/02 07:10:59;;;;;;;9.57;5.00;;;17.80;99.90;;;;;;4977370;28;20085;-47
2022/08/02 07:13:26;;;;;;;7.85;3.67;;;17.90;99.90;;;;;;4977509;28;20054;-49
2022/08/02 07:15:52;;;;;;;11.15;4.13;;;17.80;99.90;;;;;;4977232;28;20042;-48
2022/08/02 07:18:18;;;;;;;7.20;3.65;;;18.10;99.90;;;;;;4977988;28;20054;-48
2022/08/02 07:20:43;;;;;;;7.55;3.60;;;18.20;99.90;;;;;;4977731;28;20127;-51
2022/08/02 07:23:09;;;;;;;8.25;3.80;;;18.40;99.90;;;;;;4975897;28;20042;-48
2022/08/02 07:25:35;;;;;;;10.25;3.80;;;18.80;99.90;;;;;;4978138;28;20686;-49
2022/08/02 07:28:01;;;;;;;9.88;3.53;;;18.70;99.90;;;;;;4978352;28;20112;-50
2022/08/02 07:30:26;;;;;;;6.63;3.35;;;19.00;99.90;;;;;;4978045;28;20039;-49
2022/08/02 07:32:52;;;;;;;6.45;2.70;;;18.70;99.90;;;;;;4977495;28;20053;-52
2022/08/02 07:35:19;;;;;;;11.02;3.65;;;18.70;99.90;;;;;;4977316;28;20715;-52
2022/08/02 07:37:47;;;;;;;7.75;3.10;;;19.20;99.90;;;;;;4982091;28;20046;-50
2022/08/02 07:40:13;;;;;;;7.90;3.55;;;19.10;99.90;;;;;;4981785;28;20105;-48
2022/08/02 07:42:39;;;;;;;5.70;2.75;;;18.90;99.90;;;;;;4980452;28;20041;-49
2022/08/02 07:45:05;;;;;;;10.02;3.15;;;19.00;99.90;;;;;;4981587;28;20046;-49
2022/08/02 07:47:31;;;;;;;10.43;3.30;;;19.10;99.90;;;;;;4981509;28;20042;-52
2022/08/02 07:49:57;;;;;;;7.53;3.13;;;19.20;99.90;;;;;;4980835;28;20039;-49
2022/08/02 07:52:22;;;;;;;9.43;3.03;;;19.30;99.90;;;;;;4980549;28;20125;-49
2022/08/02 07:54:48;;;;;;;6.13;2.53;;;19.30;99.90;;;;;;4981780;28;20130;-50
2022/08/02 07:57:14;;;;;;;7.18;2.75;;;19.50;99.90;;;;;;4980050;28;20077;-49
2022/08/02 07:59:39;;;;;;;6.97;2.30;;;19.90;99.90;;;;;;4981565;28;20050;-52
2022/08/02 08:02:05;;;;;;;7.43;2.35;;;19.90;99.90;;;;;;4980775;28;20537;-51
2022/08/02 08:04:31;;;;;;;4.90;1.70;;;19.90;99.90;;;;;;4980181;28;20054;-51
2022/08/02 08:06:56;;;;;;;5.60;1.65;;;19.70;99.90;;;;;;4987799;28;20078;-50
2022/08/02 08:09:22;;;;;;;3.95;1.60;;;19.60;99.90;;;;;;4985092;28;20035;-48
2022/08/02 08:11:48;;;;;;;8.43;2.40;;;19.90;99.90;;;;;;4979226;28;20082;-49
2022/08/02 08:14:14;;;;;;;6.82;2.38;;;20.20;99.90;;;;;;4981304;28;20050;-50
2022/08/02 08:16:39;;;;;;;5.35;1.90;;;20.30;99.90;;;;;;4980940;28;20772;-50
2022/08/02 08:19:05;;;;;;;6.00;2.28;;;20.60;99.90;;;;;;4981259;28;20237;-51
2022/08/02 08:21:31;;;;;;;3.90;1.70;;;20.80;99.90;;;;;;4978386;28;20058;-48
2022/08/02 08:23:56;;;;;;;4.63;1.70;;;21.00;99.90;;;;;;4979892;28;20128;-49
2022/08/02 08:26:22;;;;;;;2.40;1.30;;;21.10;99.90;;;;;;4981041;28;20488;-50
2022/08/02 08:28:48;;;;;;;6.40;2.03;;;20.90;99.90;;;;;;4981154;28;20057;-52
2022/08/02 08:31:14;;;;;;;3.28;1.35;;;20.90;99.90;;;;;;4980757;28;20051;-51
2022/08/02 08:33:40;;;;;;;4.72;1.35;;;20.90;99.90;;;;;;4980698;28;20098;-50
2022/08/02 08:36:05;;;;;;;5.90;1.73;;;20.80;99.90;;;;;;4980010;28;20524;-52
2022/08/02 08:38:31;;;;;;;3.63;1.08;;;20.90;99.90;;;;;;4980313;28;20062;-50
2022/08/02 08:40:57;;;;;;;4.15;1.80;;;20.90;99.90;;;;;;4980066;28;20047;-50
2022/08/02 08:43:23;;;;;;;3.58;1.58;;;21.10;99.90;;;;;;4980184;28;20038;-50
2022/08/02 08:45:49;;;;;;;3.58;1.40;;;21.30;99.90;;;;;;4979437;28;20054;-51
2022/08/02 08:48:17;;;;;;;3.83;1.45;;;21.50;99.90;;;;;;4979629;28;20049;-51
2022/08/02 08:51:05;;;;;;;3.97;1.27;;;21.50;99.90;;;;;;5006814;28;20047;-49
2022/08/02 08:53:38;;;;;;;3.60;1.30;;;21.80;99.90;;;;;;5019664;28;20049;-52
2022/08/02 08:56:05;;;;;;;2.55;1.13;;;21.60;99.90;;;;;;5018098;28;20147;-51
2022/08/02 08:58:31;;;;;;;4.68;1.25;;;21.60;99.90;;;;;;5017849;28;20045;-51
2022/08/02 09:00:57;;;;;;;6.40;1.60;;;22.00;99.90;;;;;;5018599;28;20057;-53
2022/08/02 09:03:23;;;;;;;3.58;1.08;;;22.10;99.90;;;;;;5019172;28;20123;-48
2022/08/02 09:05:49;;;;;;;4.32;1.05;;;22.10;99.90;;;;;;5012320;28;20073;-48
2022/08/02 09:08:15;;;;;;;2.30;0.95;;;22.10;99.90;;;;;;4989819;28;20164;-51
2022/08/02 09:10:43;;;;;;;3.63;1.10;;;22.00;99.90;;;;;;4980439;28;20078;-49
2022/08/02 09:13:21;;;;;;;3.05;1.20;;;22.00;99.90;;;;;;4980226;28;20054;-50
2022/08/02 09:15:53;;;;;;;4.50;1.20;;;22.20;99.90;;;;;;4980182;28;20595;-52
2022/08/02 09:18:18;;;;;;;2.92;0.90;;;22.40;99.90;;;;;;4979618;28;20097;-50
2022/08/02 09:20:57;;;;;;;1.58;0.90;;;22.40;99.90;;;;;;4978539;28;20077;-49
2022/08/02 09:23:25;;;;;;;1.83;0.90;;;22.30;99.90;;;;;;4995445;28;20534;-52
2022/08/02 09:26:03;;;;;;;1.50;0.57;;;22.30;99.90;;;;;;4998923;28;20045;-53
2022/08/02 09:28:32;;;;;;;3.53;1.15;;;22.30;99.90;;;;;;4996130;28;20112;-51
2022/08/02 09:31:11;;;;;;;1.63;0.88;;;22.40;99.90;;;;;;4998837;28;20073;-48
2022/08/02 09:33:40;;;;;;;4.60;1.05;;;22.10;99.90;;;;;;4999432;28;20107;-51
2022/08/02 09:36:11;;;;;;;2.47;0.80;;;22.60;99.90;;;;;;4997537;28;20060;-51
2022/08/02 09:38:37;;;;;;;2.33;0.82;;;22.50;99.90;;;;;;4998801;28;20439;-52
2022/08/02 09:41:05;;;;;;;3.63;0.90;;;22.70;99.90;;;;;;4998126;28;20144;-52
2022/08/02 09:43:42;;;;;;;2.25;0.93;;;22.60;99.90;;;;;;4998163;28;20576;-50
2022/08/02 09:46:10;;;;;;;1.65;0.80;;;23.00;99.90;;;;;;4998696;28;20124;-49
2022/08/02 09:48:50;;;;;;;2.72;0.90;;;23.10;99.90;;;;;;4998892;28;20054;-49
2022/08/02 09:51:39;;;;;;;2.75;0.95;;;23.30;99.90;;;;;;4997257;28;20111;-58
2022/08/02 09:54:10;;;;;;;3.13;1.05;;;23.50;99.90;;;;;;4998486;28;20065;-49
2022/08/02 09:56:53;;;;;;;2.50;0.98;;;23.40;99.90;;;;;;4996326;28;20050;-51
2022/08/02 09:59:20;;;;;;;2.05;1.10;;;23.60;99.90;;;;;;4997819;28;20081;-52
2022/08/02 10:01:47;;;;;;;2.88;0.90;;;23.90;99.90;;;;;;4998798;28;20046;-52
2022/08/02 10:04:14;;;;;;;2.80;0.90;;;23.70;99.90;;;;;;4997267;28;20054;-50
2022/08/02 10:06:45;;;;;;;3.28;1.17;;;23.70;99.90;;;;;;4991812;28;20061;-51
2022/08/02 10:09:12;;;;;;;2.88;1.10;;;23.90;99.90;;;;;;4985162;28;20046;-54
2022/08/02 10:11:38;;;;;;;2.85;1.08;;;24.20;99.90;;;;;;4978780;28;20046;-53
2022/08/02 10:14:07;;;;;;;1.13;0.75;;;23.70;99.90;;;;;;4995594;28;20860;-54
2022/08/02 10:16:35;;;;;;;1.88;1.10;;;23.70;99.90;;;;;;4996608;28;20431;-49
2022/08/02 10:19:03;;;;;;;2.53;1.33;;;23.60;99.90;;;;;;4997736;28;20049;-50
2022/08/02 10:22:00;;;;;;;4.00;1.13;;;23.60;99.90;;;;;;4997131;28;20046;-50
2022/08/02 10:24:32;;;;;;;4.00;1.33;;;23.80;99.90;;;;;;4997528;28;20056;-50
2022/08/02 10:26:58;;;;;;;8.38;1.10;;;24.30;99.90;;;;;;4997446;28;20125;-49
2022/08/02 10:29:36;;;;;;;3.28;1.50;;;24.30;99.90;;;;;;4997656;28;20057;-50
2022/08/02 10:32:09;;;;;;;3.08;1.40;;;24.00;99.90;;;;;;4998076;28;20048;-53
2022/08/02 10:34:50;;;;;;;5.40;1.70;;;24.40;99.90;;;;;;4996085;28;20138;-50
2022/08/02 10:37:16;;;;;;;4.75;1.40;;;24.30;99.90;;;;;;4995917;28;20056;-51
2022/08/02 10:39:44;;;;;;;5.18;1.90;;;24.30;99.90;;;;;;4998287;28;20053;-51
2022/08/02 10:42:10;;;;;;;4.20;1.60;;;24.20;99.90;;;;;;4997226;28;20045;-50
2022/08/02 10:44:36;;;;;;;4.07;1.60;;;24.40;99.90;;;;;;4997302;28;20034;-53
2022/08/02 10:47:15;;;;;;;3.03;1.35;;;24.60;99.90;;;;;;4998015;28;20046;-51
2022/08/02 10:49:47;;;;;;;4.45;1.95;;;24.60;99.90;;;;;;4996903;28;20476;-53
2022/08/02 10:52:13;;;;;;;5.95;2.00;;;24.70;99.90;;;;;;4998152;28;20121;-50
2022/08/02 10:54:42;;;;;;;6.20;2.05;;;24.70;99.90;;;;;;4997841;28;20328;-53
2022/08/02 10:57:20;;;;;;;3.40;1.73;;;25.00;99.90;;;;;;4997689;28;20052;-48
2022/08/02 10:59:47;;;;;;;4.60;1.90;;;25.10;99.90;;;;;;4997862;28;20042;-52
2022/08/02 11:02:41;;;;;;;2.58;1.27;;;25.00;99.90;;;;;;4997933;28;20384;-49
2022/08/02 11:05:08;;;;;;;4.22;1.80;;;25.30;99.90;;;;;;4997074;28;20138;-52
2022/08/02 11:07:37;;;;;;;4.63;2.03;;;25.50;99.90;;;;;;4990831;28;20046;-49
2022/08/02 11:10:25;;;;;;;4.60;1.90;;;25.10;99.90;;;;;;4978495;28;20043;-49
2022/08/02 11:13:12;;;;;;;4.22;2.10;;;25.70;99.90;;;;;;4982155;28;20038;-54
2022/08/02 11:16:01;;;;;;;5.43;2.40;;;25.20;99.90;;;;;;4982320;28;20147;-50
2022/08/02 11:18:45;;;;;;;6.10;2.28;;;25.50;99.90;;;;;;5000888;28;20054;-49
2022/08/02 11:21:23;;;;;;;3.83;1.90;;;25.80;99.90;;;;;;5001008;28;20163;-51
2022/08/02 11:23:50;;;;;;;3.97;2.10;;;25.90;99.90;;;;;;5001784;28;20050;-50
2022/08/02 11:26:30;;;;;;;3.53;1.75;;;25.60;99.90;;;;;;5001887;28;20416;-51
2022/08/02 11:28:58;;;;;;;3.13;1.80;;;25.80;99.90;;;;;;5001735;28;20054;-49
2022/08/02 11:31:24;;;;;;;4.90;2.40;;;25.60;99.90;;;;;;5001247;28;20531;-50
2022/08/02 11:33:50;;;;;;;4.18;2.65;;;25.90;99.90;;;;;;5000796;28;20045;-50
2022/08/02 11:36:16;;;;;;;5.75;2.25;;;25.70;99.90;;;;;;5000621;28;20100;-52
2022/08/02 11:38:42;;;;;;;4.45;2.22;;;25.90;99.90;;;;;;5000600;28;20041;-52
2022/08/02 11:41:08;;;;;;;4.63;2.50;;;26.20;99.90;;;;;;5001279;28;20619;-48
2022/08/02 11:43:35;;;;;;;4.65;2.42;;;26.40;99.90;;;;;;5000858;28;20050;-49
2022/08/02 11:46:10;;;;;;;3.45;2.55;;;26.20;99.90;;;;;;4999224;28;20033;-54
2022/08/02 11:48:39;;;;;;;4.97;3.08;;;26.00;99.90;;;;;;5000664;28;20107;-59
2022/08/02 11:51:09;;;;;;;4.47;2.80;;;26.00;99.90;;;;;;5001178;28;20050;-58
2022/08/02 11:53:47;;;;;;;5.93;3.30;;;25.90;99.90;;;;;;4999049;28;20054;-59
2022/08/02 11:56:14;;;;;;;10.15;2.53;;;25.90;99.90;;;;;;5001229;28;20045;-58
2022/08/02 11:58:40;;;;;;;6.25;2.60;;;26.10;99.90;;;;;;5001083;28;20042;-58
2022/08/02 12:01:06;;;;;;;7.63;2.83;;;26.10;99.90;;;;;;5000329;28;20041;-59
2022/08/02 12:03:37;;;;;;;4.30;3.00;;;26.10;99.90;;;;;;5001238;28;20041;-59
2022/08/02 12:06:04;;;;;;;3.70;2.45;;;26.20;99.90;;;;;;4997322;28;20062;-59
2022/08/02 12:08:35;;;;;;;3.50;2.40;;;25.80;99.90;;;;;;4992994;28;20050;-59
2022/08/02 12:11:01;;;;;;;6.25;3.05;;;26.30;99.90;;;;;;4981595;28;20046;-58
2022/08/02 12:13:27;;;;;;;4.90;3.33;;;26.50;99.90;;;;;;4981353;28;20313;-58
2022/08/02 12:19:17;;;;;;;5.72;3.38;;;26.70;99.90;;;;;;4981546;28;20515;-59
2022/08/02 12:21:32;;;;;;;4.07;2.75;;;26.40;99.90;;;;;;4979663;28;20149;-59
2022/08/02 12:23:58;;;;;;;5.30;2.60;;;26.20;99.90;;;;;;4981046;28;20141;-56
2022/08/02 12:26:24;;;;;;;4.30;1.95;;;26.30;99.90;;;;;;4980739;28;20561;-56
2022/08/02 12:28:56;;;;;;;6.00;2.22;;;26.30;99.90;;;;;;4981431;28;20121;-56
2022/08/02 12:31:39;;;;;;;3.63;2.05;;;26.20;99.90;;;;;;4980133;28;20046;-55
2022/08/02 12:34:13;;;;;;;4.82;2.50;;;26.00;99.90;;;;;;4979448;28;20046;-56
2022/08/02 12:36:40;;;;;;;4.88;2.25;;;26.20;99.90;;;;;;4980594;28;20060;-57
2022/08/02 12:39:13;;;;;;;5.45;2.65;;;26.30;99.90;;;;;;4981202;28;20125;-56
2022/08/02 12:41:39;;;;;;;4.40;2.22;;;26.30;99.90;;;;;;4980959;28;20049;-56
2022/08/02 12:44:15;;;;;;;4.43;2.47;;;26.40;99.90;;;;;;4980247;28;20042;-57
2022/08/02 12:46:41;;;;;;;5.38;2.75;;;26.20;99.90;;;;;;4981589;28;20046;-56
2022/08/02 12:49:18;;;;;;;4.68;2.60;;;26.20;99.90;;;;;;4980405;28;20573;-57
2022/08/02 12:51:44;;;;;;;5.13;2.78;;;26.10;99.90;;;;;;4980625;28;20685;-57
2022/08/02 12:54:13;;;;;;;3.75;2.13;;;26.10;99.90;;;;;;4980796;28;20057;-56
2022/08/02 12:56:39;;;;;;;4.05;2.50;;;25.60;99.90;;;;;;4980788;28;20528;-59
2022/08/02 12:59:05;;;;;;;3.53;2.45;;;25.80;99.90;;;;;;4980528;28;20069;-59
2022/08/02 13:01:31;;;;;;;5.03;2.55;;;25.80;99.90;;;;;;4979750;28;20084;-56